sensor_id;sensor_type;location;lat;lon;timestamp;temperature;humidity
14733;DHT22;7457;50.960;6.830;2024-03-29T00:00:07;8.80;79.80
14733;DHT22;7457;50.960;6.830;2024-03-29T00:02:38;8.80;79.90
14733;DHT22;7457;50.960;6.830;2024-03-29T00:05:03;8.80;79.90
14733;DHT22;7457;50.960;6.830;2024-03-29T00:07:29;8.70;80.10
14733;DHT22;7457;50.960;6.830;2024-03-29T00:09:55;8.60;80.40
14733;DHT22;7457;50.960;6.830;2024-03-29T00:12:21;8.50;80.60
14733;DHT22;7457;50.960;6.830;2024-03-29T00:14:46;8.40;81.00
14733;DHT22;7457;50.960;6.830;2024-03-29T00:17:14;8.30;81.30
14733;DHT22;7457;50.960;6.830;2024-03-29T00:19:39;8.20;81.70
14733;DHT22;7457;50.960;6.830;2024-03-29T00:22:05;8.20;82.10
14733;DHT22;7457;50.960;6.830;2024-03-29T00:24:31;8.10;82.40
14733;DHT22;7457;50.960;6.830;2024-03-29T00:26:56;8.00;82.50
14733;DHT22;7457;50.960;6.830;2024-03-29T00:29:22;8.00;82.70
14733;DHT22;7457;50.960;6.830;2024-03-29T00:31:48;8.00;82.90
14733;DHT22;7457;50.960;6.830;2024-03-29T00:34:13;8.10;82.80
14733;DHT22;7457;50.960;6.830;2024-03-29T00:36:39;8.10;82.80
14733;DHT22;7457;50.960;6.830;2024-03-29T00:39:05;8.10;82.60
14733;DHT22;7457;50.960;6.830;2024-03-29T00:41:30;8.10;82.60
14733;DHT22;7457;50.960;6.830;2024-03-29T00:43:56;8.10;82.70
14733;DHT22;7457;50.960;6.830;2024-03-29T00:46:22;8.10;82.80
14733;DHT22;7457;50.960;6.830;2024-03-29T00:48:48;8.00;83.00
14733;DHT22;7457;50.960;6.830;2024-03-29T00:51:13;8.00;83.10
14733;DHT22;7457;50.960;6.830;2024-03-29T00:53:39;8.00;83.20
14733;DHT22;7457;50.960;6.830;2024-03-29T00:56:05;8.00;83.20
14733;DHT22;7457;50.960;6.830;2024-03-29T00:58:30;8.10;83.20
14733;DHT22;7457;50.960;6.830;2024-03-29T01:00:56;8.00;83.30
14733;DHT22;7457;50.960;6.830;2024-03-29T01:03:22;8.00;83.30
14733;DHT22;7457;50.960;6.830;2024-03-29T01:05:47;8.00;83.40
14733;DHT22;7457;50.960;6.830;2024-03-29T01:08:14;8.00;83.30
14733;DHT22;7457;50.960;6.830;2024-03-29T01:10:40;8.10;83.30
14733;DHT22;7457;50.960;6.830;2024-03-29T01:13:05;8.10;83.50
14733;DHT22;7457;50.960;6.830;2024-03-29T01:15:31;8.10;83.60
14733;DHT22;7457;50.960;6.830;2024-03-29T01:17:57;8.10;83.70
14733;DHT22;7457;50.960;6.830;2024-03-29T01:20:22;8.10;83.70
14733;DHT22;7457;50.960;6.830;2024-03-29T01:22:48;8.20;83.70
14733;DHT22;7457;50.960;6.830;2024-03-29T01:25:14;8.20;83.70
14733;DHT22;7457;50.960;6.830;2024-03-29T01:27:42;8.20;83.50
14733;DHT22;7457;50.960;6.830;2024-03-29T01:30:09;8.20;83.30
14733;DHT22;7457;50.960;6.830;2024-03-29T01:32:35;8.30;83.20
14733;DHT22;7457;50.960;6.830;2024-03-29T01:35:00;8.30;82.90
14733;DHT22;7457;50.960;6.830;2024-03-29T01:37:26;8.30;82.60
14733;DHT22;7457;50.960;6.830;2024-03-29T01:39:52;8.30;82.30
14733;DHT22;7457;50.960;6.830;2024-03-29T01:42:18;8.40;81.90
14733;DHT22;7457;50.960;6.830;2024-03-29T01:44:43;8.40;81.60
14733;DHT22;7457;50.960;6.830;2024-03-29T01:47:09;8.50;81.60
14733;DHT22;7457;50.960;6.830;2024-03-29T01:49:35;8.50;81.30
14733;DHT22;7457;50.960;6.830;2024-03-29T01:52:01;8.50;81.10
14733;DHT22;7457;50.960;6.830;2024-03-29T01:54:28;8.60;80.60
14733;DHT22;7457;50.960;6.830;2024-03-29T01:56:54;8.60;80.50
14733;DHT22;7457;50.960;6.830;2024-03-29T01:59:21;8.60;80.50
14733;DHT22;7457;50.960;6.830;2024-03-29T02:01:47;8.60;80.50
14733;DHT22;7457;50.960;6.830;2024-03-29T02:04:14;8.60;80.50
14733;DHT22;7457;50.960;6.830;2024-03-29T02:06:40;8.70;80.40
14733;DHT22;7457;50.960;6.830;2024-03-29T02:09:06;8.70;80.40
14733;DHT22;7457;50.960;6.830;2024-03-29T02:11:33;8.70;80.30
14733;DHT22;7457;50.960;6.830;2024-03-29T02:13:59;8.70;80.30
14733;DHT22;7457;50.960;6.830;2024-03-29T02:16:24;8.80;80.10
14733;DHT22;7457;50.960;6.830;2024-03-29T02:18:50;8.80;80.10
14733;DHT22;7457;50.960;6.830;2024-03-29T02:21:16;8.80;80.20
14733;DHT22;7457;50.960;6.830;2024-03-29T02:23:44;8.80;80.00
14733;DHT22;7457;50.960;6.830;2024-03-29T02:26:12;8.80;80.10
14733;DHT22;7457;50.960;6.830;2024-03-29T02:28:38;8.80;79.50
14733;DHT22;7457;50.960;6.830;2024-03-29T02:31:04;8.80;79.30
14733;DHT22;7457;50.960;6.830;2024-03-29T02:33:30;8.80;79.40
14733;DHT22;7457;50.960;6.830;2024-03-29T02:35:55;8.80;79.70
14733;DHT22;7457;50.960;6.830;2024-03-29T02:38:21;8.80;80.20
14733;DHT22;7457;50.960;6.830;2024-03-29T02:40:47;8.80;80.70
14733;DHT22;7457;50.960;6.830;2024-03-29T02:43:13;8.70;80.90
14733;DHT22;7457;50.960;6.830;2024-03-29T02:45:38;8.70;81.00
14733;DHT22;7457;50.960;6.830;2024-03-29T02:48:04;8.70;81.20
14733;DHT22;7457;50.960;6.830;2024-03-29T02:50:30;8.60;81.10
14733;DHT22;7457;50.960;6.830;2024-03-29T02:52:56;8.70;80.70
14733;DHT22;7457;50.960;6.830;2024-03-29T02:55:21;8.70;80.60
14733;DHT22;7457;50.960;6.830;2024-03-29T02:57:47;8.70;81.10
14733;DHT22;7457;50.960;6.830;2024-03-29T03:00:13;8.70;81.70
14733;DHT22;7457;50.960;6.830;2024-03-29T03:02:39;8.60;81.50
14733;DHT22;7457;50.960;6.830;2024-03-29T03:05:06;8.60;81.60
14733;DHT22;7457;50.960;6.830;2024-03-29T03:07:33;8.60;81.70
14733;DHT22;7457;50.960;6.830;2024-03-29T03:10:18;8.60;81.70
14733;DHT22;7457;50.960;6.830;2024-03-29T03:13:03;8.60;81.70
14733;DHT22;7457;50.960;6.830;2024-03-29T03:15:29;8.50;81.80
14733;DHT22;7457;50.960;6.830;2024-03-29T03:17:55;8.50;81.80
14733;DHT22;7457;50.960;6.830;2024-03-29T03:20:20;8.50;81.90
14733;DHT22;7457;50.960;6.830;2024-03-29T03:22:50;8.50;82.00
14733;DHT22;7457;50.960;6.830;2024-03-29T03:25:16;8.50;82.10
14733;DHT22;7457;50.960;6.830;2024-03-29T03:27:42;8.40;82.30
14733;DHT22;7457;50.960;6.830;2024-03-29T03:30:08;8.40;82.70
14733;DHT22;7457;50.960;6.830;2024-03-29T03:32:34;8.40;82.90
14733;DHT22;7457;50.960;6.830;2024-03-29T03:35:00;8.30;83.20
14733;DHT22;7457;50.960;6.830;2024-03-29T03:37:25;8.30;83.50
14733;DHT22;7457;50.960;6.830;2024-03-29T03:39:51;8.20;83.70
14733;DHT22;7457;50.960;6.830;2024-03-29T03:42:17;8.20;84.30
14733;DHT22;7457;50.960;6.830;2024-03-29T03:44:43;8.20;84.60
14733;DHT22;7457;50.960;6.830;2024-03-29T03:47:08;8.20;84.90
14733;DHT22;7457;50.960;6.830;2024-03-29T03:49:34;8.20;85.10
14733;DHT22;7457;50.960;6.830;2024-03-29T03:52:00;8.20;85.20
14733;DHT22;7457;50.960;6.830;2024-03-29T03:54:25;8.20;85.30
14733;DHT22;7457;50.960;6.830;2024-03-29T03:56:51;8.20;85.20
14733;DHT22;7457;50.960;6.830;2024-03-29T03:59:17;8.20;85.20
14733;DHT22;7457;50.960;6.830;2024-03-29T04:01:42;8.30;84.90
14733;DHT22;7457;50.960;6.830;2024-03-29T04:04:09;8.30;84.50
14733;DHT22;7457;50.960;6.830;2024-03-29T04:06:34;8.40;84.20
14733;DHT22;7457;50.960;6.830;2024-03-29T04:09:00;8.40;84.10
14733;DHT22;7457;50.960;6.830;2024-03-29T04:11:26;8.50;83.90
14733;DHT22;7457;50.960;6.830;2024-03-29T04:13:52;8.50;83.80
14733;DHT22;7457;50.960;6.830;2024-03-29T04:16:18;8.50;83.50
14733;DHT22;7457;50.960;6.830;2024-03-29T04:18:44;8.50;83.50
14733;DHT22;7457;50.960;6.830;2024-03-29T04:21:09;8.50;83.60
14733;DHT22;7457;50.960;6.830;2024-03-29T04:23:36;8.50;83.70
14733;DHT22;7457;50.960;6.830;2024-03-29T04:26:02;8.50;83.90
14733;DHT22;7457;50.960;6.830;2024-03-29T04:28:28;8.50;84.00
14733;DHT22;7457;50.960;6.830;2024-03-29T04:33:20;8.50;85.00
14733;DHT22;7457;50.960;6.830;2024-03-29T04:36:03;8.40;85.40
14733;DHT22;7457;50.960;6.830;2024-03-29T04:38:30;8.40;85.60
14733;DHT22;7457;50.960;6.830;2024-03-29T04:40:57;8.40;85.90
14733;DHT22;7457;50.960;6.830;2024-03-29T04:43:24;8.30;86.10
14733;DHT22;7457;50.960;6.830;2024-03-29T04:45:50;8.30;86.00
14733;DHT22;7457;50.960;6.830;2024-03-29T04:48:17;8.30;86.30
14733;DHT22;7457;50.960;6.830;2024-03-29T04:50:43;8.30;86.50
14733;DHT22;7457;50.960;6.830;2024-03-29T04:53:08;8.30;86.80
14733;DHT22;7457;50.960;6.830;2024-03-29T04:55:34;8.20;86.90
14733;DHT22;7457;50.960;6.830;2024-03-29T04:58:01;8.20;87.60
14733;DHT22;7457;50.960;6.830;2024-03-29T05:00:27;8.20;87.50
14733;DHT22;7457;50.960;6.830;2024-03-29T05:02:53;8.10;87.70
14733;DHT22;7457;50.960;6.830;2024-03-29T05:05:19;8.10;88.30
14733;DHT22;7457;50.960;6.830;2024-03-29T05:07:45;8.10;88.80
14733;DHT22;7457;50.960;6.830;2024-03-29T05:10:11;8.00;88.80
14733;DHT22;7457;50.960;6.830;2024-03-29T05:12:36;8.00;89.00
14733;DHT22;7457;50.960;6.830;2024-03-29T05:15:02;8.00;89.90
14733;DHT22;7457;50.960;6.830;2024-03-29T05:17:28;8.00;90.30
14733;DHT22;7457;50.960;6.830;2024-03-29T05:19:54;7.90;91.40
14733;DHT22;7457;50.960;6.830;2024-03-29T05:22:21;7.90;91.70
14733;DHT22;7457;50.960;6.830;2024-03-29T05:24:46;7.80;92.60
14733;DHT22;7457;50.960;6.830;2024-03-29T05:27:12;7.80;93.10
14733;DHT22;7457;50.960;6.830;2024-03-29T05:29:39;7.70;93.30
14733;DHT22;7457;50.960;6.830;2024-03-29T05:32:06;7.80;94.00
14733;DHT22;7457;50.960;6.830;2024-03-29T05:34:32;7.70;94.50
14733;DHT22;7457;50.960;6.830;2024-03-29T05:36:58;7.80;94.90
14733;DHT22;7457;50.960;6.830;2024-03-29T05:39:24;7.80;95.40
14733;DHT22;7457;50.960;6.830;2024-03-29T05:41:50;7.80;95.60
14733;DHT22;7457;50.960;6.830;2024-03-29T05:44:15;7.80;95.80
14733;DHT22;7457;50.960;6.830;2024-03-29T05:46:42;7.80;96.00
14733;DHT22;7457;50.960;6.830;2024-03-29T05:49:08;7.80;96.80
14733;DHT22;7457;50.960;6.830;2024-03-29T05:51:34;7.80;96.90
14733;DHT22;7457;50.960;6.830;2024-03-29T05:54:00;7.80;97.50
14733;DHT22;7457;50.960;6.830;2024-03-29T05:56:26;7.80;98.00
14733;DHT22;7457;50.960;6.830;2024-03-29T05:58:51;7.80;98.40
14733;DHT22;7457;50.960;6.830;2024-03-29T06:01:17;7.80;98.80
14733;DHT22;7457;50.960;6.830;2024-03-29T06:03:43;7.90;99.20
14733;DHT22;7457;50.960;6.830;2024-03-29T06:06:09;7.90;99.40
14733;DHT22;7457;50.960;6.830;2024-03-29T06:08:43;8.00;99.50
14733;DHT22;7457;50.960;6.830;2024-03-29T06:11:09;8.00;99.80
14733;DHT22;7457;50.960;6.830;2024-03-29T06:13:34;8.10;99.90
14733;DHT22;7457;50.960;6.830;2024-03-29T06:16:24;8.20;100.00
14733;DHT22;7457;50.960;6.830;2024-03-29T06:19:09;8.20;100.00
14733;DHT22;7457;50.960;6.830;2024-03-29T06:21:35;8.30;100.00
14733;DHT22;7457;50.960;6.830;2024-03-29T06:24:11;8.40;100.00
14733;DHT22;7457;50.960;6.830;2024-03-29T06:26:41;8.50;100.00
14733;DHT22;7457;50.960;6.830;2024-03-29T06:29:07;8.60;100.00
14733;DHT22;7457;50.960;6.830;2024-03-29T06:31:36;8.60;100.00
14733;DHT22;7457;50.960;6.830;2024-03-29T06:34:02;8.70;100.00
14733;DHT22;7457;50.960;6.830;2024-03-29T06:36:27;8.70;100.00
14733;DHT22;7457;50.960;6.830;2024-03-29T06:38:56;8.80;100.00
14733;DHT22;7457;50.960;6.830;2024-03-29T06:41:21;8.80;100.00
14733;DHT22;7457;50.960;6.830;2024-03-29T06:43:47;8.80;100.00
14733;DHT22;7457;50.960;6.830;2024-03-29T06:46:14;8.90;100.00
14733;DHT22;7457;50.960;6.830;2024-03-29T06:48:40;8.90;100.00
14733;DHT22;7457;50.960;6.830;2024-03-29T06:51:06;9.00;100.00
14733;DHT22;7457;50.960;6.830;2024-03-29T06:53:32;9.10;100.00
14733;DHT22;7457;50.960;6.830;2024-03-29T06:56:00;9.10;100.00
14733;DHT22;7457;50.960;6.830;2024-03-29T06:58:26;9.30;100.00
14733;DHT22;7457;50.960;6.830;2024-03-29T07:00:52;9.30;100.00
14733;DHT22;7457;50.960;6.830;2024-03-29T07:03:18;9.50;100.00
14733;DHT22;7457;50.960;6.830;2024-03-29T07:05:45;9.50;100.00
14733;DHT22;7457;50.960;6.830;2024-03-29T07:08:11;9.50;100.00
14733;DHT22;7457;50.960;6.830;2024-03-29T07:10:37;9.60;100.00
14733;DHT22;7457;50.960;6.830;2024-03-29T07:13:03;9.60;100.00
14733;DHT22;7457;50.960;6.830;2024-03-29T07:15:28;9.60;100.00
14733;DHT22;7457;50.960;6.830;2024-03-29T07:17:54;9.70;100.00
14733;DHT22;7457;50.960;6.830;2024-03-29T07:20:20;9.70;100.00
14733;DHT22;7457;50.960;6.830;2024-03-29T07:22:45;9.80;100.00
14733;DHT22;7457;50.960;6.830;2024-03-29T07:25:11;9.90;100.00
14733;DHT22;7457;50.960;6.830;2024-03-29T07:27:37;10.00;100.00
14733;DHT22;7457;50.960;6.830;2024-03-29T07:30:03;10.20;100.00
14733;DHT22;7457;50.960;6.830;2024-03-29T07:32:30;10.30;100.00
14733;DHT22;7457;50.960;6.830;2024-03-29T07:34:56;10.40;100.00
14733;DHT22;7457;50.960;6.830;2024-03-29T07:37:24;10.50;100.00
14733;DHT22;7457;50.960;6.830;2024-03-29T07:39:50;10.60;100.00
14733;DHT22;7457;50.960;6.830;2024-03-29T07:42:16;10.60;100.00
14733;DHT22;7457;50.960;6.830;2024-03-29T07:44:42;10.60;100.00
14733;DHT22;7457;50.960;6.830;2024-03-29T07:47:07;10.70;100.00
14733;DHT22;7457;50.960;6.830;2024-03-29T07:49:33;10.70;100.00
14733;DHT22;7457;50.960;6.830;2024-03-29T07:51:59;10.80;100.00
14733;DHT22;7457;50.960;6.830;2024-03-29T07:54:27;10.80;100.00
14733;DHT22;7457;50.960;6.830;2024-03-29T07:56:53;10.90;100.00
14733;DHT22;7457;50.960;6.830;2024-03-29T07:59:19;11.00;100.00
14733;DHT22;7457;50.960;6.830;2024-03-29T08:01:45;11.00;100.00
14733;DHT22;7457;50.960;6.830;2024-03-29T08:04:11;11.10;100.00
14733;DHT22;7457;50.960;6.830;2024-03-29T08:06:37;11.20;100.00
14733;DHT22;7457;50.960;6.830;2024-03-29T08:09:02;11.20;100.00
14733;DHT22;7457;50.960;6.830;2024-03-29T08:11:29;11.30;100.00
14733;DHT22;7457;50.960;6.830;2024-03-29T08:13:54;11.40;100.00
14733;DHT22;7457;50.960;6.830;2024-03-29T08:16:20;11.50;100.00
14733;DHT22;7457;50.960;6.830;2024-03-29T08:18:46;11.50;100.00
14733;DHT22;7457;50.960;6.830;2024-03-29T08:21:15;11.60;100.00
14733;DHT22;7457;50.960;6.830;2024-03-29T08:23:41;11.60;100.00
14733;DHT22;7457;50.960;6.830;2024-03-29T08:26:10;11.70;100.00
14733;DHT22;7457;50.960;6.830;2024-03-29T08:28:36;11.70;100.00
14733;DHT22;7457;50.960;6.830;2024-03-29T08:31:05;11.70;100.00
14733;DHT22;7457;50.960;6.830;2024-03-29T08:33:32;11.80;100.00
14733;DHT22;7457;50.960;6.830;2024-03-29T08:35:57;11.90;100.00
14733;DHT22;7457;50.960;6.830;2024-03-29T08:38:23;12.10;99.40
14733;DHT22;7457;50.960;6.830;2024-03-29T08:40:49;12.20;99.50
14733;DHT22;7457;50.960;6.830;2024-03-29T08:43:16;12.30;98.60
14733;DHT22;7457;50.960;6.830;2024-03-29T08:45:46;12.40;98.30
14733;DHT22;7457;50.960;6.830;2024-03-29T08:48:12;12.50;97.30
14733;DHT22;7457;50.960;6.830;2024-03-29T08:50:38;12.60;97.30
14733;DHT22;7457;50.960;6.830;2024-03-29T08:53:05;12.70;97.60
14733;DHT22;7457;50.960;6.830;2024-03-29T08:55:32;12.80;96.50
14733;DHT22;7457;50.960;6.830;2024-03-29T08:57:58;13.00;96.10
14733;DHT22;7457;50.960;6.830;2024-03-29T09:00:28;13.00;95.60
14733;DHT22;7457;50.960;6.830;2024-03-29T09:02:54;13.20;95.10
14733;DHT22;7457;50.960;6.830;2024-03-29T09:05:21;13.30;94.40
14733;DHT22;7457;50.960;6.830;2024-03-29T09:07:48;13.40;93.80
14733;DHT22;7457;50.960;6.830;2024-03-29T09:10:14;13.50;93.10
14733;DHT22;7457;50.960;6.830;2024-03-29T09:12:40;13.60;93.20
14733;DHT22;7457;50.960;6.830;2024-03-29T09:15:06;13.70;92.80
14733;DHT22;7457;50.960;6.830;2024-03-29T09:17:45;13.80;93.10
14733;DHT22;7457;50.960;6.830;2024-03-29T09:20:12;13.90;91.80
14733;DHT22;7457;50.960;6.830;2024-03-29T09:22:38;13.90;90.50
14733;DHT22;7457;50.960;6.830;2024-03-29T09:25:04;13.80;90.60
14733;DHT22;7457;50.960;6.830;2024-03-29T09:27:30;13.80;91.00
14733;DHT22;7457;50.960;6.830;2024-03-29T09:29:59;13.80;90.90
14733;DHT22;7457;50.960;6.830;2024-03-29T09:32:24;13.90;90.70
14733;DHT22;7457;50.960;6.830;2024-03-29T09:34:50;14.00;90.90
14733;DHT22;7457;50.960;6.830;2024-03-29T09:37:16;14.10;89.70
14733;DHT22;7457;50.960;6.830;2024-03-29T09:39:43;14.10;89.30
14733;DHT22;7457;50.960;6.830;2024-03-29T09:42:15;14.10;89.20
14733;DHT22;7457;50.960;6.830;2024-03-29T09:44:43;14.10;89.40
14733;DHT22;7457;50.960;6.830;2024-03-29T09:47:09;14.20;89.40
14733;DHT22;7457;50.960;6.830;2024-03-29T09:49:37;14.20;89.70
14733;DHT22;7457;50.960;6.830;2024-03-29T09:52:04;14.40;88.60
14733;DHT22;7457;50.960;6.830;2024-03-29T09:54:31;14.40;87.40
14733;DHT22;7457;50.960;6.830;2024-03-29T09:56:57;14.50;87.10
14733;DHT22;7457;50.960;6.830;2024-03-29T09:59:24;14.60;87.10
14733;DHT22;7457;50.960;6.830;2024-03-29T10:01:55;14.70;85.80
14733;DHT22;7457;50.960;6.830;2024-03-29T10:04:23;14.70;85.30
14733;DHT22;7457;50.960;6.830;2024-03-29T10:06:49;14.70;85.70
14733;DHT22;7457;50.960;6.830;2024-03-29T10:09:19;14.70;85.60
14733;DHT22;7457;50.960;6.830;2024-03-29T10:11:47;14.70;84.30
14733;DHT22;7457;50.960;6.830;2024-03-29T10:14:13;14.70;85.10
14733;DHT22;7457;50.960;6.830;2024-03-29T10:16:39;14.90;85.80
14733;DHT22;7457;50.960;6.830;2024-03-29T10:19:05;15.00;85.30
14733;DHT22;7457;50.960;6.830;2024-03-29T10:21:33;15.10;84.80
14733;DHT22;7457;50.960;6.830;2024-03-29T10:24:15;15.20;84.80
14733;DHT22;7457;50.960;6.830;2024-03-29T10:26:43;15.30;83.00
14733;DHT22;7457;50.960;6.830;2024-03-29T10:29:09;15.30;83.80
14733;DHT22;7457;50.960;6.830;2024-03-29T10:31:35;15.30;83.90
14733;DHT22;7457;50.960;6.830;2024-03-29T10:34:04;15.30;83.30
14733;DHT22;7457;50.960;6.830;2024-03-29T10:36:36;15.30;83.30
14733;DHT22;7457;50.960;6.830;2024-03-29T10:39:11;15.30;82.20
14733;DHT22;7457;50.960;6.830;2024-03-29T10:41:46;15.30;81.20
14733;DHT22;7457;50.960;6.830;2024-03-29T10:44:12;15.20;80.40
14733;DHT22;7457;50.960;6.830;2024-03-29T10:46:38;15.10;80.70
14733;DHT22;7457;50.960;6.830;2024-03-29T10:49:09;15.10;81.60
14733;DHT22;7457;50.960;6.830;2024-03-29T10:51:39;15.10;81.60
14733;DHT22;7457;50.960;6.830;2024-03-29T10:54:08;15.10;80.30
14733;DHT22;7457;50.960;6.830;2024-03-29T10:56:36;15.20;80.40
14733;DHT22;7457;50.960;6.830;2024-03-29T10:59:12;15.20;80.80
14733;DHT22;7457;50.960;6.830;2024-03-29T11:01:44;15.30;81.30
14733;DHT22;7457;50.960;6.830;2024-03-29T11:04:21;15.40;81.10
14733;DHT22;7457;50.960;6.830;2024-03-29T11:06:50;15.50;80.30
14733;DHT22;7457;50.960;6.830;2024-03-29T11:09:19;15.60;80.20
14733;DHT22;7457;50.960;6.830;2024-03-29T11:11:50;15.70;80.00
14733;DHT22;7457;50.960;6.830;2024-03-29T11:14:20;15.80;80.80
14733;DHT22;7457;50.960;6.830;2024-03-29T11:16:49;16.00;80.20
14733;DHT22;7457;50.960;6.830;2024-03-29T11:19:18;16.00;79.80
14733;DHT22;7457;50.960;6.830;2024-03-29T11:21:44;16.00;78.40
14733;DHT22;7457;50.960;6.830;2024-03-29T11:24:15;16.00;77.40
14733;DHT22;7457;50.960;6.830;2024-03-29T11:26:42;15.90;76.60
14733;DHT22;7457;50.960;6.830;2024-03-29T11:29:26;15.80;76.70
14733;DHT22;7457;50.960;6.830;2024-03-29T11:31:57;15.70;77.30
14733;DHT22;7457;50.960;6.830;2024-03-29T11:34:24;15.70;78.00
14733;DHT22;7457;50.960;6.830;2024-03-29T11:36:50;15.60;77.90
14733;DHT22;7457;50.960;6.830;2024-03-29T11:39:22;15.70;78.50
14733;DHT22;7457;50.960;6.830;2024-03-29T11:41:49;15.70;78.00
14733;DHT22;7457;50.960;6.830;2024-03-29T11:44:16;15.70;77.60
14733;DHT22;7457;50.960;6.830;2024-03-29T11:46:46;15.70;77.80
14733;DHT22;7457;50.960;6.830;2024-03-29T11:49:13;15.70;78.20
14733;DHT22;7457;50.960;6.830;2024-03-29T11:51:41;15.70;78.10
14733;DHT22;7457;50.960;6.830;2024-03-29T11:54:07;15.80;78.00
14733;DHT22;7457;50.960;6.830;2024-03-29T11:56:33;15.90;75.20
14733;DHT22;7457;50.960;6.830;2024-03-29T11:58:58;15.90;74.40
14733;DHT22;7457;50.960;6.830;2024-03-29T12:01:26;15.80;73.50
14733;DHT22;7457;50.960;6.830;2024-03-29T12:03:53;15.70;73.50
14733;DHT22;7457;50.960;6.830;2024-03-29T12:06:19;15.50;73.50
14733;DHT22;7457;50.960;6.830;2024-03-29T12:08:45;15.30;74.70
14733;DHT22;7457;50.960;6.830;2024-03-29T12:11:11;15.20;75.50
14733;DHT22;7457;50.960;6.830;2024-03-29T12:13:37;15.00;76.60
14733;DHT22;7457;50.960;6.830;2024-03-29T12:16:03;15.00;76.70
14733;DHT22;7457;50.960;6.830;2024-03-29T12:18:29;14.90;77.20
14733;DHT22;7457;50.960;6.830;2024-03-29T12:20:57;14.90;77.40
14733;DHT22;7457;50.960;6.830;2024-03-29T12:23:23;14.90;77.20
14733;DHT22;7457;50.960;6.830;2024-03-29T12:25:50;14.80;77.80
14733;DHT22;7457;50.960;6.830;2024-03-29T12:28:17;14.80;78.10
14733;DHT22;7457;50.960;6.830;2024-03-29T12:30:47;14.70;78.00
14733;DHT22;7457;50.960;6.830;2024-03-29T12:35:42;14.70;78.30
14733;DHT22;7457;50.960;6.830;2024-03-29T12:38:15;14.70;79.20
14733;DHT22;7457;50.960;6.830;2024-03-29T12:40:45;14.80;79.80
14733;DHT22;7457;50.960;6.830;2024-03-29T12:43:14;14.80;80.00
14733;DHT22;7457;50.960;6.830;2024-03-29T12:45:41;14.90;79.10
14733;DHT22;7457;50.960;6.830;2024-03-29T12:50:40;14.90;81.40
14733;DHT22;7457;50.960;6.830;2024-03-29T12:53:07;14.80;82.20
14733;DHT22;7457;50.960;6.830;2024-03-29T12:55:33;14.70;82.60
14733;DHT22;7457;50.960;6.830;2024-03-29T12:58:05;14.60;83.00
14733;DHT22;7457;50.960;6.830;2024-03-29T13:00:36;14.60;84.60
14733;DHT22;7457;50.960;6.830;2024-03-29T13:03:03;14.50;86.10
14733;DHT22;7457;50.960;6.830;2024-03-29T13:05:29;14.50;86.70
14733;DHT22;7457;50.960;6.830;2024-03-29T13:08:02;14.60;87.00
14733;DHT22;7457;50.960;6.830;2024-03-29T13:10:32;14.80;86.50
14733;DHT22;7457;50.960;6.830;2024-03-29T13:12:58;14.80;85.50
14733;DHT22;7457;50.960;6.830;2024-03-29T13:15:26;14.90;85.20
14733;DHT22;7457;50.960;6.830;2024-03-29T13:17:54;15.00;83.70
14733;DHT22;7457;50.960;6.830;2024-03-29T13:20:21;15.20;81.80
14733;DHT22;7457;50.960;6.830;2024-03-29T13:22:48;15.50;80.20
14733;DHT22;7457;50.960;6.830;2024-03-29T13:25:18;15.80;78.50
14733;DHT22;7457;50.960;6.830;2024-03-29T13:27:47;16.00;76.60
14733;DHT22;7457;50.960;6.830;2024-03-29T13:30:13;16.10;76.70
14733;DHT22;7457;50.960;6.830;2024-03-29T13:32:41;16.20;76.00
14733;DHT22;7457;50.960;6.830;2024-03-29T13:35:08;16.10;75.80
14733;DHT22;7457;50.960;6.830;2024-03-29T13:37:38;16.10;75.30
14733;DHT22;7457;50.960;6.830;2024-03-29T13:40:07;15.90;75.50
14733;DHT22;7457;50.960;6.830;2024-03-29T13:42:34;15.90;76.40
14733;DHT22;7457;50.960;6.830;2024-03-29T13:45:00;16.00;76.10
14733;DHT22;7457;50.960;6.830;2024-03-29T13:47:26;16.10;76.00
14733;DHT22;7457;50.960;6.830;2024-03-29T13:49:52;16.30;75.40
14733;DHT22;7457;50.960;6.830;2024-03-29T13:52:20;16.50;76.30
14733;DHT22;7457;50.960;6.830;2024-03-29T13:54:46;16.80;75.90
14733;DHT22;7457;50.960;6.830;2024-03-29T13:57:15;16.90;73.40
14733;DHT22;7457;50.960;6.830;2024-03-29T13:59:43;16.80;73.60
14733;DHT22;7457;50.960;6.830;2024-03-29T14:02:17;16.80;74.50
14733;DHT22;7457;50.960;6.830;2024-03-29T14:04:44;16.70;74.30
14733;DHT22;7457;50.960;6.830;2024-03-29T14:07:11;16.60;73.30
14733;DHT22;7457;50.960;6.830;2024-03-29T14:09:38;16.40;73.30
14733;DHT22;7457;50.960;6.830;2024-03-29T14:12:04;16.30;74.10
14733;DHT22;7457;50.960;6.830;2024-03-29T14:14:31;16.10;73.30
14733;DHT22;7457;50.960;6.830;2024-03-29T14:16:57;15.90;73.80
14733;DHT22;7457;50.960;6.830;2024-03-29T14:19:23;15.90;75.20
14733;DHT22;7457;50.960;6.830;2024-03-29T14:21:49;15.90;75.80
14733;DHT22;7457;50.960;6.830;2024-03-29T14:24:15;15.90;75.60
14733;DHT22;7457;50.960;6.830;2024-03-29T14:26:44;15.80;75.70
14733;DHT22;7457;50.960;6.830;2024-03-29T14:29:09;15.70;75.80
14733;DHT22;7457;50.960;6.830;2024-03-29T14:31:37;15.70;75.10
14733;DHT22;7457;50.960;6.830;2024-03-29T14:34:03;15.60;75.80
14733;DHT22;7457;50.960;6.830;2024-03-29T14:36:29;15.50;76.20
14733;DHT22;7457;50.960;6.830;2024-03-29T14:38:59;15.50;75.90
14733;DHT22;7457;50.960;6.830;2024-03-29T14:41:27;15.50;76.00
14733;DHT22;7457;50.960;6.830;2024-03-29T14:43:54;15.50;75.50
14733;DHT22;7457;50.960;6.830;2024-03-29T14:46:21;15.50;75.50
14733;DHT22;7457;50.960;6.830;2024-03-29T14:48:47;15.40;75.90
14733;DHT22;7457;50.960;6.830;2024-03-29T14:51:13;15.50;76.90
14733;DHT22;7457;50.960;6.830;2024-03-29T14:53:39;15.40;76.50
14733;DHT22;7457;50.960;6.830;2024-03-29T14:56:04;15.40;75.50
14733;DHT22;7457;50.960;6.830;2024-03-29T14:58:30;15.40;75.80
14733;DHT22;7457;50.960;6.830;2024-03-29T15:00:57;15.40;75.20
14733;DHT22;7457;50.960;6.830;2024-03-29T15:03:22;15.50;74.70
14733;DHT22;7457;50.960;6.830;2024-03-29T15:05:49;15.40;74.60
14733;DHT22;7457;50.960;6.830;2024-03-29T15:08:15;15.40;75.50
14733;DHT22;7457;50.960;6.830;2024-03-29T15:10:44;15.30;75.30
14733;DHT22;7457;50.960;6.830;2024-03-29T15:13:10;15.20;75.80
14733;DHT22;7457;50.960;6.830;2024-03-29T15:15:35;15.20;76.10
14733;DHT22;7457;50.960;6.830;2024-03-29T15:18:04;15.20;76.80
14733;DHT22;7457;50.960;6.830;2024-03-29T15:20:31;15.20;77.00
14733;DHT22;7457;50.960;6.830;2024-03-29T15:22:56;15.20;77.00
14733;DHT22;7457;50.960;6.830;2024-03-29T15:25:24;15.20;77.30
14733;DHT22;7457;50.960;6.830;2024-03-29T15:27:50;15.20;77.20
14733;DHT22;7457;50.960;6.830;2024-03-29T15:30:34;15.20;77.20
14733;DHT22;7457;50.960;6.830;2024-03-29T15:33:02;15.10;77.50
14733;DHT22;7457;50.960;6.830;2024-03-29T15:35:27;15.00;77.90
14733;DHT22;7457;50.960;6.830;2024-03-29T15:37:53;15.00;77.80
14733;DHT22;7457;50.960;6.830;2024-03-29T15:40:20;15.00;77.90
14733;DHT22;7457;50.960;6.830;2024-03-29T15:42:46;14.90;78.10
14733;DHT22;7457;50.960;6.830;2024-03-29T15:45:12;14.80;76.20
14733;DHT22;7457;50.960;6.830;2024-03-29T15:47:38;14.70;76.60
14733;DHT22;7457;50.960;6.830;2024-03-29T15:50:04;14.60;76.90
14733;DHT22;7457;50.960;6.830;2024-03-29T15:52:30;14.60;77.70
14733;DHT22;7457;50.960;6.830;2024-03-29T15:54:55;14.50;78.90